RJTX(METAR)
03/17 02:52
METAR RJTX 161752Z 34016KT 10SM CLR 08/M06 A2988 RMK A02 SLP161
T00781061 10083 20078 51010 $ FIBI=
戻る
トップページへ戻る
IMOC Co,.Ltd.